Terminal Aerodrome Forecast
Issued by NWS Austin/San Antonio, TX

Home | Current Version | Previous Version | Text Only | Print | Product List | Glossary On
Versions: 1 2 3 4 5 6 7 8 9 10 11 12 13 14 15 16 17 18 19 20 21 22
959
FTUS44 KEWX 251734
TAFSAT
TAF
KSAT 251734Z 2518/2624 08010KT P6SM VCSH BKN035
     FM260200 08005KT P6SM SCT100 BKN250
     FM260600 08005KT P6SM BKN015
     FM261500 08005KT P6SM BKN025
     FM261700 11007KT P6SM VCSH BKN040=

USA.gov is the U.S. government's official web portal to all federal, state and local government web resources and services.